Alpental, Washington
Current Conditions -  °F | °C
As of 7:53 PM on Tuesday 25 Nov 2014 (Local Time) from KRNT Reporting Station
Overcast Overcast  
Wind Chill: 57°   Ceiling: 2300
Heat Index: 57°   Visibility: 10mi
Dew Point: 54°   Wind: 9mph
Humidity: 89%   Direction: 140°SE
Pressure: 30.15"   Gusts: NA
Location:  47.4076°N, 121.414°W
Report Text: KRNT 260353Z AUTO 14008KT 10SM SCT016 OVC023 14/12 A3015 RMK AO2 SLP215 T01390122
Loading
Personal Weather Stations






























Interactive Weather Map New forecast layout! Learn more

10-Day Weather Forecast

Advertisements
Track Severe Weather on mobile